Time;durP1;ratioP1;P1;durP2;ratioP2;P2;SDS_P1;SDS_P2;PMS_P1;PMS_P2;Temp;Humidity;BMP_temperature;BMP_pressure;BME280_temperature;BME280_humidity;BME280_pressure;Samples;Min_cycle;Max_cycle;Signal;HPM_P1;HPM_P2
2022/01/18 00:00:03;;;;;;;22.47;11.23;;;1.20;99.90;1.40;95341.00;;;;6220735;23;20175;-79
2022/01/18 00:02:31;;;;;;;20.97;10.53;;;1.20;99.90;1.20;95578.00;;;;6243610;23;20615;-79
2022/01/18 00:04:59;;;;;;;24.67;11.40;;;1.10;99.90;1.10;95578.00;;;;6218310;23;20282;-79
2022/01/18 00:07:26;;;;;;;17.07;9.97;;;1.20;99.90;1.20;95401.00;;;;6244845;23;20190;-80
2022/01/18 00:09:54;;;;;;;19.97;9.77;;;1.20;99.90;1.00;95535.00;;;;6219332;23;20190;-80
2022/01/18 00:18:06;;;;;;;20.07;10.17;;;1.20;99.90;0.80;95464.00;;;;6272985;22;20492;-79
2022/01/18 00:23:37;;;;;;;17.83;9.00;;;1.20;99.90;0.80;95576.00;;;;6271016;22;20175;-79
2022/01/18 00:26:07;;;;;;;17.13;9.87;;;1.20;99.90;1.20;95343.00;;;;6221095;23;20206;-79
2022/01/18 00:28:38;;;;;;;17.27;9.50;;;1.20;99.90;1.30;95537.00;;;;6247033;23;20698;-79
2022/01/18 00:31:30;;;;;;;18.37;9.83;;;1.30;99.90;1.20;95370.00;;;;6245757;23;20175;-79
2022/01/18 00:34:02;;;;;;;16.90;8.50;;;1.20;99.90;1.20;95614.00;;;;6248308;23;20171;-79
2022/01/18 00:36:57;;;;;;;16.77;9.20;;;1.30;99.90;1.50;95595.00;;;;6224480;23;20648;-79
2022/01/18 00:39:25;;;;;;;18.93;9.20;;;1.30;99.90;1.20;95384.00;;;;6247498;23;20220;-80
2022/01/18 00:41:57;;;;;;;18.53;10.03;;;1.30;99.90;1.30;95410.00;;;;6222051;23;20664;-79
2022/01/18 00:44:24;;;;;;;15.83;9.27;;;1.30;99.90;1.40;95483.00;;;;6246637;23;20630;-79
2022/01/18 00:46:52;;;;;;;27.50;9.77;;;1.30;99.90;1.20;95585.00;;;;6221113;23;20202;-79
2022/01/18 00:49:19;;;;;;;25.03;11.47;;;1.30;99.90;1.20;95510.00;;;;6220946;23;20548;-79
2022/01/18 00:51:53;;;;;;;22.30;10.40;;;1.30;99.90;1.20;95587.00;;;;6220331;23;20183;-79
2022/01/18 00:54:25;;;;;;;19.13;9.93;;;1.30;99.90;1.20;95351.00;;;;6220561;23;20194;-78
2022/01/18 00:56:54;;;;;;;17.93;9.33;;;1.30;99.90;1.20;95537.00;;;;6245997;23;20194;-79
2022/01/18 00:59:22;;;;;;;18.50;9.70;;;1.40;99.90;1.20;95497.00;;;;6221356;23;20178;-79
2022/01/18 01:01:50;;;;;;;21.20;10.57;;;1.40;99.90;1.40;95575.00;;;;6245947;23;20590;-79
2022/01/18 01:04:20;;;;;;;23.63;10.90;;;1.40;99.90;1.60;95614.00;;;;6244739;22;20176;-79
2022/01/18 01:06:49;;;;;;;23.00;10.20;;;1.40;99.90;1.50;95512.00;;;;6220770;23;20177;-79
2022/01/18 01:09:16;;;;;;;23.90;11.60;;;1.40;99.90;1.70;95442.00;;;;6245449;23;20195;-79
2022/01/18 01:11:45;;;;;;;24.47;10.80;;;1.40;99.90;1.50;95615.00;;;;6220898;23;20201;-80
2022/01/18 01:14:18;;;;;;;26.00;11.10;;;1.40;99.90;1.20;95349.00;;;;6245602;23;20615;-79
2022/01/18 01:17:06;;;;;;;20.30;10.27;;;1.40;99.90;1.30;95553.00;;;;6245910;23;20167;-79
2022/01/18 01:36:40;;;;;;;19.27;9.50;;;1.40;99.90;1.30;95515.00;;;;6226540;23;20178;-79
2022/01/18 01:44:47;;;;;;;22.67;10.60;;;1.40;99.90;0.70;95678.00;;;;6246733;23;20191;-80
2022/01/18 01:47:20;;;;;;;22.67;9.93;;;1.30;99.90;1.40;95617.00;;;;6252460;23;20594;-81
2022/01/18 01:49:50;;;;;;;22.70;10.17;;;1.30;99.90;0.90;95317.00;;;;6201505;23;20175;-80
2022/01/18 01:52:21;;;;;;;20.67;9.97;;;1.40;99.90;0.50;95580.00;;;;6249814;22;20668;-80
2022/01/18 01:54:48;;;;;;;23.23;9.60;;;1.40;99.90;1.20;95390.00;;;;6250555;22;20167;-80
2022/01/18 01:57:16;;;;;;;21.10;10.07;;;1.40;99.90;0.90;95689.00;;;;6275101;22;20214;-80
2022/01/18 01:59:43;;;;;;;20.00;9.27;;;1.40;99.90;1.20;95371.00;;;;6250789;22;20498;-81
2022/01/18 02:02:11;;;;;;;28.57;11.40;;;1.40;99.90;0.60;95417.00;;;;6225626;23;20178;-79
2022/01/18 02:04:39;;;;;;;31.57;12.00;;;1.40;99.90;1.50;95572.00;;;;6248623;22;20642;-80
2022/01/18 02:07:07;;;;;;;28.63;12.00;;;1.40;99.90;1.30;95335.00;;;;6223409;23;20175;-79
2022/01/18 02:09:37;;;;;;;25.83;13.00;;;1.40;99.90;1.40;95495.00;;;;6246919;23;20164;-79
2022/01/18 02:12:05;;;;;;;28.30;12.97;;;1.40;99.90;1.80;95475.00;;;;6220749;23;20171;-79
2022/01/18 02:14:33;;;;;;;34.47;14.27;;;1.40;99.90;1.50;95621.00;;;;6220375;23;20221;-79
2022/01/18 02:22:34;;;;;;;29.53;13.73;;;1.40;99.90;1.60;95417.00;;;;6245375;23;20195;-79
2022/01/18 02:25:02;;;;;;;33.43;14.97;;;1.40;99.90;1.60;95631.00;;;;6247308;22;20230;-79
2022/01/18 02:27:29;;;;;;;36.97;13.40;;;1.40;99.90;1.40;95622.00;;;;6220278;23;20198;-79
2022/01/18 02:29:56;;;;;;;31.53;14.53;;;1.40;99.90;1.30;95488.00;;;;6245491;23;20168;-81
2022/01/18 02:32:23;;;;;;;40.23;14.63;;;1.40;99.90;1.60;95406.00;;;;6220377;23;20174;-81
2022/01/18 02:34:51;;;;;;;36.63;14.40;;;1.40;99.90;1.50;95485.00;;;;6219712;23;20168;-79
2022/01/18 02:37:19;;;;;;;38.87;15.83;;;1.40;99.90;1.50;95581.00;;;;6245148;23;20171;-79
2022/01/18 02:39:47;;;;;;;42.57;16.13;;;1.40;99.90;1.70;95423.00;;;;6245197;23;20170;-80
2022/01/18 02:42:29;;;;;;;29.07;14.20;;;1.40;99.90;1.80;95482.00;;;;6219765;23;20171;-79
2022/01/18 02:44:56;;;;;;;36.57;15.53;;;1.40;99.90;0.60;95533.00;;;;6219793;23;20634;-79
2022/01/18 02:47:24;;;;;;;42.17;15.73;;;1.40;99.90;1.60;95519.00;;;;6244625;22;20190;-79
2022/01/18 02:49:51;;;;;;;39.87;15.50;;;1.40;99.90;1.70;95508.00;;;;6219622;23;20258;-80
2022/01/18 02:52:19;;;;;;;42.13;16.20;;;1.40;99.90;0.80;95587.00;;;;6219927;23;20594;-79
2022/01/18 02:54:46;;;;;;;46.20;16.77;;;1.40;99.90;1.60;95627.00;;;;6244887;23;20512;-79
2022/01/18 02:57:16;;;;;;;43.33;15.90;;;1.40;99.90;1.60;95609.00;;;;6219670;23;20186;-80
2022/01/18 03:00:06;;;;;;;44.87;16.83;;;1.40;99.90;1.80;95321.00;;;;6245089;23;20167;-79
2022/01/18 03:05:20;;;;;;;48.90;17.70;;;1.30;99.90;1.50;95534.00;;;;6245140;22;20724;-79
2022/01/18 03:07:47;;;;;;;39.60;16.33;;;1.30;99.90;1.70;95502.00;;;;6220083;23;20167;-80
2022/01/18 03:10:15;;;;;;;43.70;17.40;;;1.30;99.90;1.20;95592.00;;;;6245175;22;20195;-79
2022/01/18 03:12:46;;;;;;;39.57;16.47;;;1.40;99.90;0.60;95579.00;;;;6220654;23;20641;-79
2022/01/18 03:15:14;;;;;;;48.77;17.57;;;1.30;99.90;0.80;95574.00;;;;6245395;23;20629;-80
2022/01/18 03:17:41;;;;;;;45.63;17.27;;;1.30;99.90;1.80;95563.00;;;;6219380;23;20221;-80
2022/01/18 03:20:12;;;;;;;47.60;17.40;;;1.30;99.90;1.70;95530.00;;;;6220850;23;20481;-79
2022/01/18 03:22:41;;;;;;;51.53;17.63;;;1.30;99.90;0.70;95370.00;;;;6220310;23;20171;-80
2022/01/18 03:25:27;;;;;;;44.47;17.50;;;1.40;99.90;1.10;95637.00;;;;6245885;23;20187;-79
2022/01/18 03:28:06;;;;;;;46.50;15.53;;;1.40;99.90;1.50;95479.00;;;;6244951;23;20197;-79
2022/01/18 03:30:42;;;;;;;45.33;16.80;;;1.40;99.90;1.30;95623.00;;;;6244853;23;20191;-79
2022/01/18 03:33:14;;;;;;;55.70;16.63;;;1.40;99.90;1.50;95633.00;;;;6245164;22;20167;-79
2022/01/18 03:35:45;;;;;;;51.83;18.73;;;1.40;99.90;1.50;95622.00;;;;6219238;23;20184;-79
2022/01/18 03:38:15;;;;;;;47.87;17.57;;;1.40;99.90;1.40;95616.00;;;;6220327;23;20179;-79
2022/01/18 03:40:42;;;;;;;52.63;17.90;;;1.40;99.90;1.50;95349.00;;;;6244829;23;20266;-79
2022/01/18 03:43:13;;;;;;;52.53;18.67;;;1.50;99.90;1.50;95610.00;;;;6220298;23;20617;-80
2022/01/18 03:45:46;;;;;;;60.43;19.03;;;1.50;99.90;1.20;95363.00;;;;6269886;22;20164;-80
2022/01/18 03:48:28;;;;;;;56.97;19.57;;;1.50;99.90;1.20;95312.00;;;;6271164;22;20167;-80
2022/01/18 03:50:56;;;;;;;59.30;19.50;;;1.50;99.90;1.70;95606.00;;;;6222152;23;20182;-80
2022/01/18 03:53:26;;;;;;;47.97;17.97;;;1.60;99.90;1.50;95358.00;;;;6224972;23;20202;-80
2022/01/18 03:55:57;;;;;;;47.83;16.97;;;1.60;99.90;1.30;95417.00;;;;6225342;23;20180;-80
2022/01/18 03:58:24;;;;;;;57.63;18.63;;;1.60;99.90;1.50;95567.00;;;;6200551;23;20163;-81
2022/01/18 04:00:52;;;;;;;56.03;17.97;;;1.60;99.90;0.70;95320.00;;;;6249365;23;20190;-80
2022/01/18 04:03:21;;;;;;;54.33;18.83;;;1.60;99.90;0.70;95434.00;;;;6276108;22;20595;-81
2022/01/18 04:05:48;;;;;;;57.10;17.97;;;1.50;99.90;1.40;95412.00;;;;6249973;22;20274;-81
2022/01/18 04:08:17;;;;;;;56.97;18.63;;;1.50;99.90;1.30;95330.00;;;;6248209;23;20167;-80
2022/01/18 04:10:45;;;;;;;64.53;18.93;;;1.50;99.90;0.60;95404.00;;;;6220823;23;20241;-79
2022/01/18 04:13:13;;;;;;;46.60;18.50;;;1.50;99.90;1.40;95508.00;;;;6245315;23;20167;-79
2022/01/18 04:15:43;;;;;;;43.67;16.23;;;1.40;99.90;1.40;95657.00;;;;6246009;22;20167;-79
2022/01/18 04:29:13;;;;;;;58.77;18.53;;;1.40;99.90;1.50;95607.00;;;;6246357;22;20242;-81
2022/01/18 04:31:40;;;;;;;69.37;19.93;;;1.40;99.90;1.60;95617.00;;;;6243488;23;20225;-81
2022/01/18 04:34:07;;;;;;;54.00;18.80;;;1.40;99.90;0.70;95667.00;;;;6219722;23;20175;-81
2022/01/18 04:36:36;;;;;;;60.27;19.30;;;1.40;99.90;1.40;95549.00;;;;6219551;23;20171;-81
2022/01/18 04:39:06;;;;;;;69.73;20.03;;;1.50;99.90;1.40;95671.00;;;;6219651;23;20171;-81
2022/01/18 04:41:35;;;;;;;71.17;19.90;;;1.50;99.90;1.40;95484.00;;;;6245767;22;20178;-81
2022/01/18 04:48:23;;;;;;;75.80;22.00;;;1.50;99.90;1.50;95640.00;;;;6247295;23;20186;-81
2022/01/18 04:49:40;;;;;;;69.83;19.67;;;1.40;99.90;1.50;95718.00;;;;6248680;23;20175;-81
2022/01/18 04:52:12;;;;;;;61.27;20.23;;;1.40;99.90;0.60;95684.00;;;;6223555;23;20167;-81
2022/01/18 04:54:43;;;;;;;55.87;18.07;;;1.40;99.90;1.50;95342.00;;;;6221319;23;20168;-81
2022/01/18 04:59:39;;;;;;;49.87;19.23;;;1.40;99.90;1.40;95486.00;;;;6229715;23;20182;-81
2022/01/18 05:02:06;;;;;;;65.30;19.00;;;1.40;99.90;1.20;95548.00;;;;6229999;23;20238;-82
2022/01/18 05:04:37;;;;;;;63.17;20.03;;;1.40;99.90;1.40;95442.00;;;;6279647;22;20217;-82
2022/01/18 05:07:08;;;;;;;58.93;19.30;;;1.40;99.90;0.70;95674.00;;;;6254327;22;20521;-82
2022/01/18 05:09:37;;;;;;;54.53;18.17;;;1.40;99.90;1.20;95440.00;;;;6251499;23;20152;-81
2022/01/18 05:12:12;;;;;;;59.47;18.83;;;1.40;99.90;1.00;95352.00;;;;6226284;23;20174;-81
2022/01/18 05:14:40;;;;;;;51.67;17.67;;;1.50;99.90;1.20;95709.00;;;;6224556;23;20190;-82
2022/01/18 05:17:34;;;;;;;56.57;17.90;;;1.40;99.90;1.30;95650.00;;;;6248428;23;20225;-81
2022/01/18 05:23:00;;;;;;;66.27;20.07;;;1.30;99.90;1.10;95417.00;;;;6248125;23;20543;-82
2022/01/18 05:25:29;;;;;;;58.97;19.17;;;1.30;99.90;1.20;95668.00;;;;6248056;23;20626;-81
2022/01/18 05:28:00;;;;;;;72.27;21.37;;;1.30;99.90;1.40;95649.00;;;;6223334;23;20171;-82
2022/01/18 05:30:33;;;;;;;78.63;21.00;;;1.20;99.90;1.00;95439.00;;;;6173786;23;20250;-82
2022/01/18 05:33:05;;;;;;;89.10;20.97;;;1.20;99.90;1.20;95434.00;;;;6223497;23;20171;-81
2022/01/18 05:35:41;;;;;;;51.80;18.80;;;1.20;99.90;1.10;95327.00;;;;6253738;23;20171;-82
2022/01/18 05:38:09;;;;;;;47.33;18.67;;;1.30;99.90;1.20;95670.00;;;;6261683;23;20553;-82
2022/01/18 05:40:38;;;;;;;41.93;16.40;;;1.20;99.90;1.20;95366.00;;;;6222052;23;20175;-81
2022/01/18 05:43:07;;;;;;;50.97;18.00;;;1.20;99.90;1.20;95430.00;;;;6222411;23;20258;-82
2022/01/18 05:45:35;;;;;;;57.07;17.83;;;1.20;99.90;1.10;95349.00;;;;6221662;23;20209;-81
2022/01/18 05:48:02;;;;;;;55.97;18.93;;;1.10;99.90;0.60;95682.00;;;;6222304;23;20173;-81
2022/01/18 05:50:31;;;;;;;64.10;19.90;;;1.10;99.90;1.20;95667.00;;;;6247648;23;20175;-81
2022/01/18 05:53:01;;;;;;;62.97;20.13;;;1.10;99.90;0.20;95583.00;;;;6220043;23;20175;-80
2022/01/18 05:55:29;;;;;;;50.97;17.83;;;1.00;99.90;0.80;95481.00;;;;6220651;23;20167;-80
2022/01/18 05:57:56;;;;;;;55.40;19.93;;;1.00;99.90;1.10;95531.00;;;;6246669;22;20594;-80
2022/01/18 06:00:26;;;;;;;64.67;19.73;;;1.00;99.90;1.10;95463.00;;;;6220392;23;20488;-80
2022/01/18 06:08:23;;;;;;;32.10;15.20;;;1.00;99.90;1.10;95451.00;;;;6271452;22;20215;-81
2022/01/18 06:10:53;;;;;;;42.40;17.47;;;1.00;99.90;0.10;95445.00;;;;6221568;23;20186;-80
2022/01/18 06:13:28;;;;;;;49.60;17.53;;;1.00;99.90;0.60;95374.00;;;;6222919;23;20242;-81
2022/01/18 06:15:56;;;;;;;32.07;13.57;;;1.00;99.90;1.10;95392.00;;;;6222384;23;20186;-81
2022/01/18 06:18:28;;;;;;;42.83;14.43;;;1.00;99.90;0.90;95418.00;;;;6246582;23;20261;-81
2022/01/18 06:20:59;;;;;;;31.37;13.93;;;1.00;99.90;1.00;95531.00;;;;6246758;23;20577;-81
2022/01/18 06:23:29;;;;;;;33.10;13.40;;;1.00;99.90;0.20;95294.00;;;;6223690;23;20178;-81
2022/01/18 06:25:58;;;;;;;32.90;14.33;;;1.00;99.90;0.80;95394.00;;;;6247338;23;20190;-81
2022/01/18 06:28:25;;;;;;;32.27;12.80;;;1.00;99.90;0.80;95338.00;;;;6246868;23;20182;-81
2022/01/18 06:30:57;;;;;;;32.23;12.53;;;1.00;99.90;0.50;95660.00;;;;6222990;23;20163;-81
2022/01/18 06:33:27;;;;;;;30.57;12.47;;;0.90;99.90;0.90;95375.00;;;;6247764;23;20198;-81
2022/01/18 06:35:56;;;;;;;35.70;12.87;;;0.90;99.90;0.30;95480.00;;;;6222093;23;20198;-81
2022/01/18 06:38:29;;;;;;;30.50;13.70;;;0.90;99.90;0.90;95439.00;;;;6248148;23;20561;-81
2022/01/18 06:41:04;;;;;;;26.67;11.67;;;0.80;99.90;0.90;95698.00;;;;6201623;23;20171;-81
2022/01/18 06:43:55;;;;;;;22.43;11.40;;;0.80;99.90;0.90;95437.00;;;;6248978;23;20250;-81
2022/01/18 06:46:31;;;;;;;28.63;10.77;;;0.80;99.90;0.90;95501.00;;;;6272885;22;20517;-81
2022/01/18 06:49:24;;;;;;;30.57;11.97;;;0.80;99.90;0.80;95426.00;;;;6249534;23;20174;-81
2022/01/18 06:52:47;;;;;;;24.53;10.83;;;0.80;99.90;-0.30;95386.00;;;;6187406;23;20163;-81
2022/01/18 06:56:08;;;;;;;27.30;12.47;;;0.80;99.90;0.90;95312.00;;;;6132734;23;20518;-82
2022/01/18 10:44:42;;;;;;;11.90;6.30;;;3.70;99.90;1.30;95421.00;;;;6015732;23;20171;-81
2022/01/18 10:57:43;;;;;;;13.60;5.83;;;3.20;99.90;2.10;95370.00;;;;5832834;24;20175;-81
2022/01/18 13:06:30;;;;;;;7.20;4.50;;;3.00;1.00;2.50;95269.00;;;;4750107;22;36230771;-79
2022/01/18 13:10:38;;;;;;;8.37;4.47;;;3.10;1.00;2.30;95401.00;;;;6201648;23;20610;-80
2022/01/18 13:31:01;;;;;;;9.77;4.93;;;2.80;1.00;2.50;95407.00;;;;5774996;24;20206;-80
2022/01/18 13:34:31;;;;;;;7.90;4.63;;;2.70;1.00;2.50;95337.00;;;;5768940;24;20165;-80
2022/01/18 13:38:07;;;;;;;10.57;5.70;;;2.70;1.00;2.30;95204.00;;;;5858709;24;20503;-80
2022/01/18 13:41:43;;;;;;;10.27;5.10;;;2.70;11.50;1.90;95385.00;;;;6012492;23;20590;-80
2022/01/18 13:45:52;;;;;;;11.73;5.47;;;2.60;83.80;1.30;95350.00;;;;5984621;23;20173;-81
2022/01/18 13:54:28;;;;;;;13.33;5.20;;;2.30;99.90;2.00;95620.00;;;;6094981;23;20171;-80
2022/01/18 13:58:18;;;;;;;11.90;5.13;;;2.20;99.90;1.90;95580.00;;;;6051400;23;20247;-80
2022/01/18 14:02:04;;;;;;;;;;;;;;;;;;;;;
2022/01/18 14:33:41;;;;;;;7.97;4.87;;;2.30;99.90;1.80;95154.00;;;;6271569;22;20170;-79
2022/01/18 14:36:59;;;;;;;9.20;4.67;;;2.30;99.90;1.90;95613.00;;;;6210958;22;20181;-79
2022/01/18 14:40:22;;;;;;;8.60;4.63;;;2.30;99.90;1.60;95600.00;;;;6155948;23;20536;-79
2022/01/18 14:43:53;;;;;;;9.00;4.70;;;2.30;99.90;1.80;95276.00;;;;6163407;23;20474;-79
2022/01/18 14:47:45;;;;;;;9.73;5.47;;;2.20;99.90;1.90;95325.00;;;;6044629;23;20247;-80
2022/01/18 14:55:20;;;;;;;9.57;5.00;;;2.10;99.90;1.40;95168.00;;;;5881874;24;20182;-79
2022/01/18 14:58:35;;;;;;;15.77;7.20;;;2.10;99.90;1.80;95320.00;;;;5977770;24;20701;-80
2022/01/18 15:02:14;;;;;;;;;;;;;;;;;;;;;
2022/01/18 15:06:00;;;;;;;10.53;6.20;;;2.00;99.90;1.60;95370.00;;;;6003524;23;20207;-79
2022/01/18 15:09:50;;;;;;;15.57;8.23;;;1.90;99.90;1.40;95222.00;;;;5987901;23;20606;-80
2022/01/18 15:17:54;;;;;;;8.37;4.37;;;1.50;99.90;0.80;95341.00;;;;5951543;24;20647;-80
2022/01/18 15:25:15;;;;;;;12.50;5.67;;;1.20;1.00;1.20;95269.00;;;;5978413;23;20696;-79
2022/01/18 15:29:37;;;;;;;;;;;;;;;;;;;;;
2022/01/18 15:33:51;;;;;;;10.50;4.60;;;0.90;1.00;0.60;95605.00;;;;6103315;23;20256;-81
2022/01/18 15:37:50;;;;;;;;;;;;;;;;;;;;;
2022/01/18 15:45:44;;;;;;;;;;;;;;;;;;;;;
2022/01/18 16:17:49;;;;;;;17.43;11.30;;;1.00;99.90;1.00;95190.00;;;;5426787;22;19673619;-80
2022/01/18 16:20:56;;;;;;;17.40;9.73;;;1.10;99.90;1.20;95461.00;;;;6254485;23;20625;-81
2022/01/18 16:24:09;;;;;;;20.07;8.70;;;1.10;1.00;1.10;95568.00;;;;6208780;23;20470;-81
2022/01/18 16:26:59;;;;;;;17.57;7.47;;;1.20;1.00;0.60;95409.00;;;;6207203;23;20272;-81
2022/01/18 16:29:27;;;;;;;22.30;11.47;;;1.20;1.00;1.10;95557.00;;;;6204841;23;20170;-81
2022/01/18 16:31:56;;;;;;;26.47;16.63;;;1.20;1.00;-0.20;95548.00;;;;6202848;23;20170;-80
2022/01/18 16:34:28;;;;;;;17.27;10.63;;;1.20;1.00;1.00;95359.00;;;;6227370;23;20578;-79
2022/01/18 16:36:55;;;;;;;21.83;11.00;;;1.20;1.00;1.20;95478.00;;;;6200710;23;20621;-79
2022/01/18 16:39:27;;;;;;;19.53;11.27;;;1.20;1.00;0.10;95549.00;;;;6201571;23;20202;-80
2022/01/18 16:41:59;;;;;;;74.17;42.63;;;1.20;1.00;1.10;95308.00;;;;6225055;23;20680;-80
2022/01/18 16:44:27;;;;;;;20.73;9.47;;;1.20;1.00;1.20;95164.00;;;;6229346;23;20197;-80
2022/01/18 16:46:56;;;;;;;18.30;9.57;;;1.20;1.00;1.10;95579.00;;;;6203708;23;20196;-79
2022/01/18 16:49:23;;;;;;;38.10;23.33;;;1.20;1.00;1.10;95573.00;;;;6202133;23;20196;-80
2022/01/18 16:51:52;;;;;;;23.60;12.40;;;1.20;13.10;1.10;95462.00;;;;6201641;23;20193;-80
2022/01/18 16:54:21;;;;;;;19.10;10.43;;;1.20;18.70;1.10;95277.00;;;;6204429;23;20221;-81
2022/01/18 16:56:48;;;;;;;18.87;8.73;;;1.20;37.00;1.10;95277.00;;;;6208059;23;20181;-81
2022/01/18 16:59:15;;;;;;;20.50;9.50;;;1.20;34.20;1.20;95329.00;;;;6204664;23;20179;-81
2022/01/18 17:01:43;;;;;;;20.33;9.43;;;1.20;39.90;0.70;95406.00;;;;6199105;23;20175;-80
2022/01/18 17:04:12;;;;;;;23.13;11.60;;;1.10;69.80;1.10;95385.00;;;;6198710;22;20179;-80
2022/01/18 17:06:40;;;;;;;22.17;10.13;;;1.10;98.80;1.00;95548.00;;;;6222574;23;20661;-81
2022/01/18 17:09:08;;;;;;;17.30;9.47;;;1.10;99.90;1.00;95582.00;;;;6198487;23;20195;-80
2022/01/18 17:11:36;;;;;;;18.97;9.20;;;1.10;99.90;0.70;95581.00;;;;6199002;23;20175;-80
2022/01/18 17:14:04;;;;;;;16.77;8.73;;;1.00;99.90;1.10;95634.00;;;;6199925;23;20194;-80
2022/01/18 17:16:33;;;;;;;14.50;8.20;;;1.00;99.90;1.10;95629.00;;;;6201053;23;20591;-80
2022/01/18 17:19:04;;;;;;;19.13;7.90;;;1.10;90.20;1.10;95227.00;;;;6225682;23;20160;-80
2022/01/18 17:21:32;;;;;;;13.47;7.33;;;1.10;39.20;1.00;95569.00;;;;6199194;23;20174;-80
2022/01/18 17:23:59;;;;;;;14.97;6.67;;;1.00;1.00;1.00;95326.00;;;;6224491;23;20182;-81
2022/01/18 17:26:30;;;;;;;13.30;7.17;;;1.00;1.00;0.60;95320.00;;;;6200507;23;20199;-82
2022/01/18 17:29:00;;;;;;;8.60;6.37;;;1.00;1.00;1.00;95603.00;;;;6222791;23;20179;-80
2022/01/18 17:31:28;;;;;;;12.67;6.37;;;1.10;1.00;1.20;95466.00;;;;6220457;23;20171;-80
2022/01/18 17:33:58;;;;;;;13.43;6.80;;;1.10;1.00;1.10;95418.00;;;;6222242;23;20217;-80
2022/01/18 17:36:32;;;;;;;12.87;6.10;;;1.00;1.00;1.10;95300.00;;;;6202869;23;20170;-81
2022/01/18 17:39:09;;;;;;;9.63;6.20;;;1.00;1.00;1.00;95323.00;;;;6203938;23;20254;-81
2022/01/18 17:41:39;;;;;;;9.87;5.83;;;1.00;1.00;1.00;95611.00;;;;6197811;23;20163;-80
2022/01/18 17:44:07;;;;;;;13.50;8.50;;;1.00;99.90;1.00;95190.00;;;;6204045;23;20182;-81
2022/01/18 17:46:35;;;;;;;14.90;8.00;;;1.00;99.90;1.00;95339.00;;;;6202752;23;20167;-80
2022/01/18 17:49:04;;;;;;;12.47;7.00;;;1.00;99.90;0.90;95472.00;;;;6202916;23;20182;-81
2022/01/18 17:51:32;;;;;;;10.37;6.70;;;1.00;99.90;1.10;95338.00;;;;6204888;23;20194;-83
2022/01/18 17:54:01;;;;;;;9.83;6.67;;;1.00;99.90;1.10;95658.00;;;;6207240;23;20505;-81
2022/01/18 17:56:36;;;;;;;8.97;4.93;;;1.00;99.90;0.90;95582.00;;;;6225096;23;20565;-80
2022/01/18 17:59:04;;;;;;;9.43;6.30;;;0.90;99.90;-0.40;95308.00;;;;6198623;23;20171;-81
2022/01/18 18:01:32;;;;;;;9.80;5.93;;;0.90;99.90;0.90;95582.00;;;;6206165;23;20241;-81
2022/01/18 18:03:59;;;;;;;8.23;5.20;;;0.90;99.90;0.90;95250.00;;;;6208095;22;20541;-81
2022/01/18 18:06:27;;;;;;;9.07;5.33;;;0.90;99.90;-0.20;95533.00;;;;6227966;23;20197;-80
2022/01/18 18:08:57;;;;;;;6.63;4.97;;;0.90;99.90;0.80;95426.00;;;;6232807;23;20183;-81
2022/01/18 18:11:30;;;;;;;8.60;4.93;;;0.90;99.90;0.60;95425.00;;;;6229089;23;20167;-80
2022/01/18 18:14:04;;;;;;;7.83;5.00;;;0.90;99.90;0.90;95281.00;;;;6204807;23;20243;-80
2022/01/18 18:16:31;;;;;;;8.97;5.30;;;0.90;56.00;-0.20;95598.00;;;;6216245;23;20194;-82
2022/01/18 18:19:03;;;;;;;8.57;4.70;;;0.90;32.30;0.10;95177.00;;;;6215320;23;20223;-82
2022/01/18 18:21:41;;;;;;;10.10;5.13;;;0.90;48.30;0.50;95232.00;;;;6239973;22;20186;-81
2022/01/18 18:24:15;;;;;;;7.83;5.13;;;0.80;71.20;0.80;95625.00;;;;6214041;23;20163;-82
2022/01/18 18:26:43;;;;;;;9.23;5.67;;;0.80;99.90;0.80;95584.00;;;;6237197;23;20168;-82
2022/01/18 18:29:11;;;;;;;9.20;5.47;;;0.80;99.60;0.80;95251.00;;;;6209963;23;20195;-81
2022/01/18 18:31:38;;;;;;;8.03;4.90;;;0.80;96.20;0.90;95348.00;;;;6209268;23;20168;-82
2022/01/18 18:34:06;;;;;;;11.37;6.50;;;0.80;99.90;-0.20;95325.00;;;;6234280;23;20172;-82
2022/01/18 18:36:33;;;;;;;8.07;5.60;;;0.80;99.90;-0.20;95553.00;;;;6227218;23;20199;-81
2022/01/18 18:39:16;;;;;;;10.00;5.57;;;0.80;87.90;0.70;95279.00;;;;6236870;23;20160;-83
2022/01/18 18:44:43;;;;;;;10.83;6.50;;;0.80;33.70;0.60;95273.00;;;;6238718;23;20518;-82
2022/01/18 18:47:14;;;;;;;8.33;5.43;;;0.80;44.50;-0.50;95024.00;;;;6239024;23;20183;-82
2022/01/18 18:49:44;;;;;;;8.00;5.87;;;0.80;47.90;0.70;95370.00;;;;6213943;23;20221;-82
2022/01/18 18:52:13;;;;;;;12.27;7.00;;;0.80;63.70;0.80;95230.00;;;;6213492;23;20198;-83
2022/01/18 18:54:42;;;;;;;13.57;7.40;;;0.80;58.60;0.00;95255.00;;;;6212938;23;20166;-81
2022/01/18 18:57:09;;;;;;;11.33;6.57;;;0.80;85.70;0.60;95397.00;;;;6214477;23;20182;-81
2022/01/18 18:59:55;;;;;;;9.87;6.40;;;0.80;99.90;0.80;95276.00;;;;6214338;23;20171;-82
2022/01/18 19:02:38;;;;;;;11.07;7.83;;;0.80;98.60;-0.20;95293.00;;;;6241432;23;20174;-84
2022/01/18 19:05:12;;;;;;;10.10;6.83;;;0.80;93.40;0.70;95263.00;;;;6238352;23;20195;-82
2022/01/18 19:07:40;;;;;;;9.07;6.43;;;0.80;76.20;-0.20;95240.00;;;;6209356;23;20232;-82
2022/01/18 19:10:10;;;;;;;13.80;8.37;;;0.80;64.90;0.50;95243.00;;;;6233354;23;20174;-82
2022/01/18 19:12:40;;;;;;;13.93;7.70;;;0.80;60.00;0.50;95257.00;;;;6209976;23;20202;-82
2022/01/18 19:15:08;;;;;;;11.20;8.63;;;0.80;85.30;-0.10;95287.00;;;;6209162;23;20175;-82
2022/01/18 19:17:41;;;;;;;13.00;7.53;;;0.70;97.40;0.40;95088.00;;;;6229699;23;20198;-82
2022/01/18 19:20:11;;;;;;;13.37;7.83;;;0.70;99.90;0.80;95279.00;;;;6207917;23;20188;-84
2022/01/18 19:22:38;;;;;;;12.50;7.13;;;0.80;44.30;0.80;95270.00;;;;6179774;23;20655;-81
2022/01/18 19:25:07;;;;;;;11.77;6.97;;;0.70;18.90;0.90;95351.00;;;;6226077;23;20187;-81
2022/01/18 19:27:37;;;;;;;12.63;7.77;;;0.70;1.00;0.90;95305.00;;;;6208031;23;20175;-82
2022/01/18 19:30:05;;;;;;;11.80;7.43;;;0.70;1.00;-0.50;95240.00;;;;6229611;23;20163;-82
2022/01/18 19:32:33;;;;;;;8.67;6.43;;;0.70;1.00;0.40;95592.00;;;;6200981;23;20853;-82
2022/01/18 19:35:08;;;;;;;8.37;6.97;;;0.70;1.00;0.80;95240.00;;;;6210916;23;20151;-82
2022/01/18 19:37:37;;;;;;;12.67;8.50;;;0.70;5.00;0.80;95271.00;;;;6234093;23;20214;-82
2022/01/18 19:40:16;;;;;;;10.47;7.20;;;0.70;37.40;0.70;95206.00;;;;6212625;23;20152;-84
2022/01/18 19:42:46;;;;;;;12.80;7.77;;;0.70;59.60;0.60;95288.00;;;;6216733;23;20565;-82
2022/01/18 19:45:19;;;;;;;12.17;7.03;;;0.70;71.90;0.60;95256.00;;;;6215262;23;20194;-82
2022/01/18 19:48:00;;;;;;;12.93;8.50;;;0.70;59.10;-0.20;95244.00;;;;6217057;23;20183;-83
2022/01/18 19:50:39;;;;;;;14.80;8.93;;;0.70;32.60;0.30;95252.00;;;;6208008;23;20171;-83
2022/01/18 19:53:12;;;;;;;12.93;7.73;;;0.70;15.70;-0.60;95336.00;;;;6205199;23;20229;-81
2022/01/18 19:55:40;;;;;;;17.10;8.50;;;0.70;1.00;0.70;95577.00;;;;6227923;23;20504;-82
2022/01/18 19:58:11;;;;;;;13.40;8.63;;;0.60;1.00;0.60;95257.00;;;;6239193;23;20195;-83
2022/01/18 20:00:45;;;;;;;11.57;8.60;;;0.60;1.00;0.60;95241.00;;;;6210348;23;20569;-82
2022/01/18 20:05:53;;;;;;;9.93;7.43;;;0.60;39.60;0.50;95250.00;;;;6239242;22;20178;-81
2022/01/18 20:08:21;;;;;;;12.00;8.53;;;0.60;45.60;0.60;95237.00;;;;6239748;23;20645;-83
2022/01/18 20:10:50;;;;;;;21.33;12.90;;;0.60;19.20;0.50;95474.00;;;;6241785;23;20177;-83
2022/01/18 20:13:27;;;;;;;15.07;8.50;;;0.60;48.90;0.50;95171.00;;;;6215463;23;20175;-84
2022/01/18 20:16:00;;;;;;;10.87;8.20;;;0.50;98.60;-0.30;95164.00;;;;6218677;23;20155;-86
2022/01/18 20:18:34;;;;;;;14.40;9.70;;;0.60;99.90;-1.00;95189.00;;;;6216081;23;20167;-82
2022/01/18 20:21:04;;;;;;;15.27;9.33;;;0.50;99.90;0.20;95086.00;;;;6211165;23;20174;-83
2022/01/18 20:23:33;;;;;;;13.27;9.27;;;0.50;99.90;-0.50;95142.00;;;;6237166;23;20168;-85
2022/01/18 20:26:04;;;;;;;12.97;8.50;;;0.50;39.60;0.40;95228.00;;;;6205611;23;20207;-85
2022/01/18 20:28:59;;;;;;;14.57;10.90;;;0.50;11.70;-0.40;95105.00;;;;6186491;23;20619;-84
2022/01/18 20:31:30;;;;;;;17.50;10.00;;;0.50;1.00;-0.80;95243.00;;;;6210389;23;20167;-83
2022/01/18 20:34:02;;;;;;;14.87;9.90;;;0.50;1.00;0.40;95217.00;;;;6234871;23;20171;-85
2022/01/18 20:37:15;;;;;;;13.83;9.80;;;0.40;1.00;0.30;95171.00;;;;6201190;23;20544;-82
2022/01/18 20:39:49;;;;;;;13.50;9.00;;;0.40;1.00;-0.10;95168.00;;;;6189695;23;20183;-84
2022/01/18 20:45:26;;;;;;;11.40;9.27;;;0.40;1.00;0.40;95349.00;;;;6208690;23;20175;-83
2022/01/18 20:48:06;;;;;;;13.17;10.10;;;0.40;12.80;-0.70;95347.00;;;;6212628;23;20247;-84